sensor_id;sensor_type;location;lat;lon;timestamp;pressure;altitude;pressure_sealevel;temperature;humidity
29063;BME280;71206;48.564;-123.458;2023-10-13T00:00:07;100916.84;;;21.51;48.63
29063;BME280;71206;48.564;-123.458;2023-10-13T00:02:31;100909.74;;;22.76;45.69
29063;BME280;71206;48.564;-123.458;2023-10-13T00:04:57;100906.96;;;22.86;43.78
29063;BME280;71206;48.564;-123.458;2023-10-13T00:07:23;100902.02;;;23.44;43.15
29063;BME280;71206;48.564;-123.458;2023-10-13T00:09:49;100901.73;;;22.98;42.29
29063;BME280;71206;48.564;-123.458;2023-10-13T00:12:15;100899.78;;;23.36;41.96
29063;BME280;71206;48.564;-123.458;2023-10-13T00:14:41;100902.17;;;22.42;45.11
29063;BME280;71206;48.564;-123.458;2023-10-13T00:17:08;100897.46;;;22.86;43.93
29063;BME280;71206;48.564;-123.458;2023-10-13T00:19:34;100893.90;;;22.50;44.26
29063;BME280;71206;48.564;-123.458;2023-10-13T00:21:58;100891.91;;;22.45;44.01
29063;BME280;71206;48.564;-123.458;2023-10-13T00:24:25;100894.69;;;21.97;45.25
29063;BME280;71206;48.564;-123.458;2023-10-13T00:26:49;100887.09;;;21.78;45.46
29063;BME280;71206;48.564;-123.458;2023-10-13T00:29:15;100890.39;;;21.39;46.95
29063;BME280;71206;48.564;-123.458;2023-10-13T00:31:41;100886.39;;;21.18;48.10
29063;BME280;71206;48.564;-123.458;2023-10-13T00:34:07;100889.09;;;21.06;49.62
29063;BME280;71206;48.564;-123.458;2023-10-13T00:36:38;100886.18;;;20.52;49.94
29063;BME280;71206;48.564;-123.458;2023-10-13T00:38:58;100880.45;;;20.82;50.52
29063;BME280;71206;48.564;-123.458;2023-10-13T00:41:24;100879.02;;;20.60;50.53
29063;BME280;71206;48.564;-123.458;2023-10-13T00:43:50;100876.64;;;19.45;53.91
29063;BME280;71206;48.564;-123.458;2023-10-13T00:46:16;100877.90;;;19.08;57.07
29063;BME280;71206;48.564;-123.458;2023-10-13T00:48:43;100879.88;;;19.34;59.46
29063;BME280;71206;48.564;-123.458;2023-10-13T00:51:12;100878.37;;;18.62;64.00
29063;BME280;71206;48.564;-123.458;2023-10-13T00:53:35;100876.65;;;18.92;63.83
29063;BME280;71206;48.564;-123.458;2023-10-13T00:55:59;100875.20;;;18.49;63.64
29063;BME280;71206;48.564;-123.458;2023-10-13T00:58:25;100877.38;;;18.98;61.93
29063;BME280;71206;48.564;-123.458;2023-10-13T01:00:51;100873.87;;;18.81;61.32
29063;BME280;71206;48.564;-123.458;2023-10-13T01:03:16;100872.20;;;19.47;61.02
29063;BME280;71206;48.564;-123.458;2023-10-13T01:05:42;100874.57;;;19.19;61.12
29063;BME280;71206;48.564;-123.458;2023-10-13T01:08:09;100870.77;;;19.00;61.31
29063;BME280;71206;48.564;-123.458;2023-10-13T01:10:33;100867.15;;;18.81;62.38
29063;BME280;71206;48.564;-123.458;2023-10-13T01:13:01;100867.34;;;18.80;62.13
29063;BME280;71206;48.564;-123.458;2023-10-13T01:15:26;100867.40;;;18.48;65.07
29063;BME280;71206;48.564;-123.458;2023-10-13T01:17:51;100863.87;;;18.81;65.10
29063;BME280;71206;48.564;-123.458;2023-10-13T01:20:16;100862.62;;;18.18;64.91
29063;BME280;71206;48.564;-123.458;2023-10-13T01:22:40;100862.46;;;18.05;66.86
29063;BME280;71206;48.564;-123.458;2023-10-13T01:25:07;100864.73;;;17.46;70.90
29063;BME280;71206;48.564;-123.458;2023-10-13T01:27:31;100859.12;;;17.39;73.40
29063;BME280;71206;48.564;-123.458;2023-10-13T01:29:57;100853.65;;;17.52;73.11
29063;BME280;71206;48.564;-123.458;2023-10-13T01:32:22;100851.40;;;17.60;72.93
29063;BME280;71206;48.564;-123.458;2023-10-13T01:34:47;100844.94;;;17.33;73.28
29063;BME280;71206;48.564;-123.458;2023-10-13T01:37:11;100844.23;;;17.38;72.75
29063;BME280;71206;48.564;-123.458;2023-10-13T01:39:37;100844.86;;;17.47;72.19
29063;BME280;71206;48.564;-123.458;2023-10-13T01:42:00;100844.58;;;17.69;70.96
29063;BME280;71206;48.564;-123.458;2023-10-13T01:44:26;100841.51;;;17.79;69.90
29063;BME280;71206;48.564;-123.458;2023-10-13T01:46:50;100849.71;;;17.19;75.31
29063;BME280;71206;48.564;-123.458;2023-10-13T01:49:16;100843.74;;;17.35;74.53
29063;BME280;71206;48.564;-123.458;2023-10-13T01:51:41;100838.38;;;17.32;73.21
29063;BME280;71206;48.564;-123.458;2023-10-13T01:54:06;100836.60;;;16.86;75.36
29063;BME280;71206;48.564;-123.458;2023-10-13T01:56:31;100828.03;;;17.38;72.11
29063;BME280;71206;48.564;-123.458;2023-10-13T01:58:55;100827.36;;;17.32;72.66
29063;BME280;71206;48.564;-123.458;2023-10-13T02:01:21;100822.68;;;17.36;71.13
29063;BME280;71206;48.564;-123.458;2023-10-13T02:03:46;100825.23;;;17.55;71.70
29063;BME280;71206;48.564;-123.458;2023-10-13T02:06:10;100822.80;;;17.65;69.81
29063;BME280;71206;48.564;-123.458;2023-10-13T02:08:36;100821.55;;;17.65;70.14
29063;BME280;71206;48.564;-123.458;2023-10-13T02:11:01;100835.69;;;17.11;73.10
29063;BME280;71206;48.564;-123.458;2023-10-13T02:13:27;100836.71;;;16.62;76.52
29063;BME280;71206;48.564;-123.458;2023-10-13T02:15:55;100834.09;;;15.99;81.63
29063;BME280;71206;48.564;-123.458;2023-10-13T02:18:21;100832.20;;;16.24;80.91
29063;BME280;71206;48.564;-123.458;2023-10-13T02:20:41;100827.00;;;16.56;78.20
29063;BME280;71206;48.564;-123.458;2023-10-13T02:23:10;100826.53;;;17.04;74.07
29063;BME280;71206;48.564;-123.458;2023-10-13T02:25:31;100825.77;;;16.70;75.72
29063;BME280;71206;48.564;-123.458;2023-10-13T02:27:56;100816.82;;;17.37;72.71
29063;BME280;71206;48.564;-123.458;2023-10-13T02:30:21;100818.28;;;16.77;74.58
29063;BME280;71206;48.564;-123.458;2023-10-13T02:32:49;100815.12;;;16.49;77.49
29063;BME280;71206;48.564;-123.458;2023-10-13T02:35:12;100813.74;;;16.90;75.62
29063;BME280;71206;48.564;-123.458;2023-10-13T02:37:36;100811.03;;;16.46;77.80
29063;BME280;71206;48.564;-123.458;2023-10-13T02:40:02;100809.26;;;16.46;77.58
29063;BME280;71206;48.564;-123.458;2023-10-13T02:42:27;100813.66;;;16.28;78.52
29063;BME280;71206;48.564;-123.458;2023-10-13T02:44:52;100815.99;;;15.84;81.18
29063;BME280;71206;48.564;-123.458;2023-10-13T02:47:17;100817.82;;;15.43;85.61
29063;BME280;71206;48.564;-123.458;2023-10-13T02:49:46;100817.58;;;15.63;85.24
29063;BME280;71206;48.564;-123.458;2023-10-13T02:52:07;100818.95;;;15.61;83.89
29063;BME280;71206;48.564;-123.458;2023-10-13T02:54:32;100821.22;;;14.99;88.54
29063;BME280;71206;48.564;-123.458;2023-10-13T02:56:57;100821.87;;;14.89;90.81
29063;BME280;71206;48.564;-123.458;2023-10-13T02:59:22;100815.56;;;15.04;87.74
29063;BME280;71206;48.564;-123.458;2023-10-13T03:01:49;100809.94;;;16.03;83.82
29063;BME280;71206;48.564;-123.458;2023-10-13T03:04:12;100812.21;;;15.88;81.64
29063;BME280;71206;48.564;-123.458;2023-10-13T03:06:38;100808.44;;;15.43;82.53
29063;BME280;71206;48.564;-123.458;2023-10-13T03:09:07;100807.79;;;15.57;84.10
29063;BME280;71206;48.564;-123.458;2023-10-13T03:11:27;100804.91;;;15.54;84.29
29063;BME280;71206;48.564;-123.458;2023-10-13T03:13:53;100808.18;;;15.37;88.89
29063;BME280;71206;48.564;-123.458;2023-10-13T03:16:18;100808.21;;;15.07;90.51
29063;BME280;71206;48.564;-123.458;2023-10-13T03:18:44;100804.17;;;15.33;88.43
29063;BME280;71206;48.564;-123.458;2023-10-13T03:21:08;100801.79;;;15.55;87.30
29063;BME280;71206;48.564;-123.458;2023-10-13T03:23:33;100805.31;;;15.37;88.03
29063;BME280;71206;48.564;-123.458;2023-10-13T03:25:58;100806.62;;;15.31;91.17
29063;BME280;71206;48.564;-123.458;2023-10-13T03:28:25;100800.73;;;15.93;84.35
29063;BME280;71206;48.564;-123.458;2023-10-13T03:30:48;100802.70;;;15.71;82.99
29063;BME280;71206;48.564;-123.458;2023-10-13T03:33:13;100804.36;;;15.78;82.16
29063;BME280;71206;48.564;-123.458;2023-10-13T03:35:44;100802.32;;;16.00;80.28
29063;BME280;71206;48.564;-123.458;2023-10-13T03:38:04;100795.08;;;15.85;80.99
29063;BME280;71206;48.564;-123.458;2023-10-13T03:40:29;100792.13;;;15.59;82.34
29063;BME280;71206;48.564;-123.458;2023-10-13T03:42:55;100790.21;;;16.12;80.19
29063;BME280;71206;48.564;-123.458;2023-10-13T03:45:19;100794.77;;;16.17;81.19
29063;BME280;71206;48.564;-123.458;2023-10-13T03:47:48;100794.58;;;15.99;82.01
29063;BME280;71206;48.564;-123.458;2023-10-13T03:50:10;100796.78;;;15.91;81.15
29063;BME280;71206;48.564;-123.458;2023-10-13T03:52:34;100796.52;;;15.38;85.87
29063;BME280;71206;48.564;-123.458;2023-10-13T03:54:59;100794.75;;;15.05;88.78
29063;BME280;71206;48.564;-123.458;2023-10-13T03:57:25;100792.03;;;14.77;92.00
29063;BME280;71206;48.564;-123.458;2023-10-13T03:59:49;100792.96;;;15.21;89.82
29063;BME280;71206;48.564;-123.458;2023-10-13T04:02:15;100791.87;;;15.20;91.47
29063;BME280;71206;48.564;-123.458;2023-10-13T04:04:40;100786.39;;;15.46;87.43
29063;BME280;71206;48.564;-123.458;2023-10-13T04:07:06;100781.87;;;15.71;83.81
29063;BME280;71206;48.564;-123.458;2023-10-13T04:09:31;100781.75;;;15.03;88.94
29063;BME280;71206;48.564;-123.458;2023-10-13T04:11:55;100777.06;;;15.44;87.34
29063;BME280;71206;48.564;-123.458;2023-10-13T04:14:20;100780.36;;;16.07;84.30
29063;BME280;71206;48.564;-123.458;2023-10-13T04:16:47;100779.30;;;15.18;90.86
29063;BME280;71206;48.564;-123.458;2023-10-13T04:19:10;100781.00;;;15.04;89.24
29063;BME280;71206;48.564;-123.458;2023-10-13T04:21:36;100777.56;;;15.73;84.81
29063;BME280;71206;48.564;-123.458;2023-10-13T04:24:00;100772.04;;;15.18;89.00
29063;BME280;71206;48.564;-123.458;2023-10-13T04:26:29;100778.60;;;14.77;92.79
29063;BME280;71206;48.564;-123.458;2023-10-13T04:28:51;100773.70;;;14.94;91.60
29063;BME280;71206;48.564;-123.458;2023-10-13T04:31:16;100773.38;;;15.27;89.15
29063;BME280;71206;48.564;-123.458;2023-10-13T04:33:42;100768.31;;;15.53;85.53
29063;BME280;71206;48.564;-123.458;2023-10-13T04:36:07;100763.67;;;15.16;89.47
29063;BME280;71206;48.564;-123.458;2023-10-13T04:38:31;100758.78;;;15.09;89.98
29063;BME280;71206;48.564;-123.458;2023-10-13T04:40:56;100753.99;;;14.97;90.55
29063;BME280;71206;48.564;-123.458;2023-10-13T04:43:22;100750.68;;;15.01;88.74
29063;BME280;71206;48.564;-123.458;2023-10-13T04:45:47;100748.95;;;15.50;85.46
29063;BME280;71206;48.564;-123.458;2023-10-13T04:48:13;100747.07;;;15.38;84.23
29063;BME280;71206;48.564;-123.458;2023-10-13T04:50:36;100744.83;;;15.17;84.28
29063;BME280;71206;48.564;-123.458;2023-10-13T04:53:02;100744.24;;;15.19;85.08
29063;BME280;71206;48.564;-123.458;2023-10-13T04:55:27;100742.16;;;14.60;88.03
29063;BME280;71206;48.564;-123.458;2023-10-13T04:57:52;100739.37;;;14.92;87.18
29063;BME280;71206;48.564;-123.458;2023-10-13T05:00:21;100737.37;;;14.63;88.12
29063;BME280;71206;48.564;-123.458;2023-10-13T05:02:44;100736.39;;;14.53;94.04
29063;BME280;71206;48.564;-123.458;2023-10-13T05:05:09;100734.26;;;14.41;95.51
29063;BME280;71206;48.564;-123.458;2023-10-13T05:07:33;100730.91;;;14.76;94.33
29063;BME280;71206;48.564;-123.458;2023-10-13T05:09:57;100729.56;;;14.61;91.32
29063;BME280;71206;48.564;-123.458;2023-10-13T05:12:23;100727.05;;;14.54;96.85
29063;BME280;71206;48.564;-123.458;2023-10-13T05:14:48;100731.23;;;14.10;100.00
29063;BME280;71206;48.564;-123.458;2023-10-13T05:17:13;100734.62;;;14.23;100.00
29063;BME280;71206;48.564;-123.458;2023-10-13T05:19:38;100729.63;;;14.34;100.00
29063;BME280;71206;48.564;-123.458;2023-10-13T05:22:03;100730.92;;;14.14;100.00
29063;BME280;71206;48.564;-123.458;2023-10-13T05:24:29;100730.00;;;14.20;100.00
29063;BME280;71206;48.564;-123.458;2023-10-13T05:26:54;100721.69;;;14.72;97.77
29063;BME280;71206;48.564;-123.458;2023-10-13T05:29:21;100721.76;;;14.34;100.00
29063;BME280;71206;48.564;-123.458;2023-10-13T05:31:45;100718.41;;;14.44;95.15
29063;BME280;71206;48.564;-123.458;2023-10-13T05:34:10;100721.66;;;14.20;100.00
29063;BME280;71206;48.564;-123.458;2023-10-13T05:36:36;100721.89;;;14.25;100.00
29063;BME280;71206;48.564;-123.458;2023-10-13T05:39:01;100718.96;;;14.30;100.00
29063;BME280;71206;48.564;-123.458;2023-10-13T05:41:26;100712.66;;;14.51;97.77
29063;BME280;71206;48.564;-123.458;2023-10-13T05:43:52;100712.60;;;14.38;95.14
29063;BME280;71206;48.564;-123.458;2023-10-13T05:46:16;100713.00;;;14.64;93.66
29063;BME280;71206;48.564;-123.458;2023-10-13T05:48:42;100717.18;;;13.98;96.52
29063;BME280;71206;48.564;-123.458;2023-10-13T05:51:07;100716.08;;;14.46;94.44
29063;BME280;71206;48.564;-123.458;2023-10-13T05:53:32;100713.27;;;14.56;93.39
29063;BME280;71206;48.564;-123.458;2023-10-13T05:56:01;100714.31;;;14.40;97.31
29063;BME280;71206;48.564;-123.458;2023-10-13T05:58:22;100707.20;;;14.44;94.50
29063;BME280;71206;48.564;-123.458;2023-10-13T06:00:48;100700.65;;;15.02;88.80
29063;BME280;71206;48.564;-123.458;2023-10-13T06:03:12;100701.64;;;14.71;88.72
29063;BME280;71206;48.564;-123.458;2023-10-13T06:05:38;100696.81;;;14.71;88.45
29063;BME280;71206;48.564;-123.458;2023-10-13T06:08:04;100696.37;;;14.48;92.04
29063;BME280;71206;48.564;-123.458;2023-10-13T06:10:29;100695.93;;;14.30;92.54
29063;BME280;71206;48.564;-123.458;2023-10-13T06:12:53;100691.83;;;14.48;91.30
29063;BME280;71206;48.564;-123.458;2023-10-13T06:15:18;100692.35;;;14.42;92.16
29063;BME280;71206;48.564;-123.458;2023-10-13T06:17:44;100691.40;;;14.66;89.82
29063;BME280;71206;48.564;-123.458;2023-10-13T06:20:09;100690.54;;;14.49;90.83
29063;BME280;71206;48.564;-123.458;2023-10-13T06:22:33;100687.35;;;14.53;90.46
29063;BME280;71206;48.564;-123.458;2023-10-13T06:24:59;100688.58;;;14.31;91.99
29063;BME280;71206;48.564;-123.458;2023-10-13T06:27:24;100685.87;;;14.09;95.31
29063;BME280;71206;48.564;-123.458;2023-10-13T06:29:49;100685.80;;;14.26;92.83
29063;BME280;71206;48.564;-123.458;2023-10-13T06:32:15;100687.65;;;13.88;100.00
29063;BME280;71206;48.564;-123.458;2023-10-13T06:34:40;100685.02;;;13.86;99.35
29063;BME280;71206;48.564;-123.458;2023-10-13T06:37:05;100687.19;;;13.88;96.92
29063;BME280;71206;48.564;-123.458;2023-10-13T06:39:30;100681.30;;;13.86;96.31
29063;BME280;71206;48.564;-123.458;2023-10-13T06:41:56;100679.92;;;13.87;99.18
29063;BME280;71206;48.564;-123.458;2023-10-13T06:44:21;100675.93;;;13.77;96.61
29063;BME280;71206;48.564;-123.458;2023-10-13T06:46:46;100676.22;;;13.58;100.00
29063;BME280;71206;48.564;-123.458;2023-10-13T06:49:11;100672.82;;;13.16;100.00
29063;BME280;71206;48.564;-123.458;2023-10-13T06:51:36;100664.99;;;13.46;100.00
29063;BME280;71206;48.564;-123.458;2023-10-13T06:54:02;100664.43;;;13.40;100.00
29063;BME280;71206;48.564;-123.458;2023-10-13T06:56:27;100659.27;;;13.97;95.73
29063;BME280;71206;48.564;-123.458;2023-10-13T06:58:53;100658.86;;;14.10;96.87
29063;BME280;71206;48.564;-123.458;2023-10-13T07:01:17;100661.66;;;13.40;99.66
29063;BME280;71206;48.564;-123.458;2023-10-13T07:03:43;100658.01;;;13.83;95.20
29063;BME280;71206;48.564;-123.458;2023-10-13T07:06:07;100656.89;;;13.80;94.13
29063;BME280;71206;48.564;-123.458;2023-10-13T07:08:32;100653.30;;;13.76;97.21
29063;BME280;71206;48.564;-123.458;2023-10-13T07:10:58;100649.96;;;13.24;100.00
29063;BME280;71206;48.564;-123.458;2023-10-13T07:13:23;100644.31;;;14.08;95.87
29063;BME280;71206;48.564;-123.458;2023-10-13T07:15:48;100640.45;;;13.90;94.45
29063;BME280;71206;48.564;-123.458;2023-10-13T07:18:14;100641.35;;;13.62;100.00
29063;BME280;71206;48.564;-123.458;2023-10-13T07:20:41;100642.83;;;14.00;97.98
29063;BME280;71206;48.564;-123.458;2023-10-13T07:23:04;100636.84;;;13.92;92.79
29063;BME280;71206;48.564;-123.458;2023-10-13T07:25:29;100638.76;;;13.70;95.84
29063;BME280;71206;48.564;-123.458;2023-10-13T07:27:54;100636.45;;;13.53;94.26
29063;BME280;71206;48.564;-123.458;2023-10-13T07:30:19;100635.06;;;13.80;94.19
29063;BME280;71206;48.564;-123.458;2023-10-13T07:32:44;100636.75;;;13.81;95.72
29063;BME280;71206;48.564;-123.458;2023-10-13T07:35:10;100635.76;;;14.01;90.78
29063;BME280;71206;48.564;-123.458;2023-10-13T07:37:34;100634.57;;;13.77;94.26
29063;BME280;71206;48.564;-123.458;2023-10-13T07:40:00;100628.02;;;13.92;92.09
29063;BME280;71206;48.564;-123.458;2023-10-13T07:42:25;100625.57;;;13.96;94.27
29063;BME280;71206;48.564;-123.458;2023-10-13T07:44:50;100618.19;;;14.31;88.42
29063;BME280;71206;48.564;-123.458;2023-10-13T07:47:15;100618.64;;;13.80;94.19
29063;BME280;71206;48.564;-123.458;2023-10-13T07:49:42;100614.95;;;13.63;94.14
29063;BME280;71206;48.564;-123.458;2023-10-13T07:52:09;100615.76;;;13.74;96.25
29063;BME280;71206;48.564;-123.458;2023-10-13T07:54:30;100614.62;;;14.06;91.65
29063;BME280;71206;48.564;-123.458;2023-10-13T07:56:55;100613.28;;;13.52;95.76
29063;BME280;71206;48.564;-123.458;2023-10-13T07:59:21;100612.17;;;13.45;98.68
29063;BME280;71206;48.564;-123.458;2023-10-13T08:01:46;100612.14;;;13.84;92.00
29063;BME280;71206;48.564;-123.458;2023-10-13T08:04:12;100606.43;;;13.49;94.26
29063;BME280;71206;48.564;-123.458;2023-10-13T08:06:36;100599.87;;;13.96;90.32
29063;BME280;71206;48.564;-123.458;2023-10-13T08:09:03;100596.69;;;13.74;90.19
29063;BME280;71206;48.564;-123.458;2023-10-13T08:11:28;100597.73;;;13.41;92.08
29063;BME280;71206;48.564;-123.458;2023-10-13T08:13:53;100595.18;;;13.17;97.39
29063;BME280;71206;48.564;-123.458;2023-10-13T08:16:18;100590.84;;;13.30;100.00
29063;BME280;71206;48.564;-123.458;2023-10-13T08:18:42;100586.99;;;13.38;98.92
29063;BME280;71206;48.564;-123.458;2023-10-13T08:21:08;100579.97;;;13.54;95.51
29063;BME280;71206;48.564;-123.458;2023-10-13T08:23:33;100582.33;;;13.95;93.98
29063;BME280;71206;48.564;-123.458;2023-10-13T08:28:23;100581.61;;;13.29;96.36
29063;BME280;71206;48.564;-123.458;2023-10-13T08:30:48;100581.36;;;13.34;99.80
29063;BME280;71206;48.564;-123.458;2023-10-13T08:33:13;100579.54;;;13.23;99.62
29063;BME280;71206;48.564;-123.458;2023-10-13T08:35:38;100576.93;;;13.86;92.91
29063;BME280;71206;48.564;-123.458;2023-10-13T08:38:04;100575.67;;;13.61;92.67
29063;BME280;71206;48.564;-123.458;2023-10-13T08:40:29;100574.82;;;13.68;92.14
29063;BME280;71206;48.564;-123.458;2023-10-13T08:42:57;100574.85;;;13.24;95.56
29063;BME280;71206;48.564;-123.458;2023-10-13T08:45:19;100574.59;;;13.60;92.49
29063;BME280;71206;48.564;-123.458;2023-10-13T08:47:44;100569.55;;;13.71;90.64
29063;BME280;71206;48.564;-123.458;2023-10-13T08:50:09;100559.09;;;14.22;89.12
29063;BME280;71206;48.564;-123.458;2023-10-13T08:52:34;100559.49;;;13.09;98.26
29063;BME280;71206;48.564;-123.458;2023-10-13T08:55:00;100558.45;;;13.80;92.63
29063;BME280;71206;48.564;-123.458;2023-10-13T08:57:25;100555.19;;;13.67;90.54
29063;BME280;71206;48.564;-123.458;2023-10-13T08:59:54;100556.23;;;13.54;92.19
29063;BME280;71206;48.564;-123.458;2023-10-13T09:02:15;100558.35;;;13.14;96.39
29063;BME280;71206;48.564;-123.458;2023-10-13T09:04:43;100554.91;;;13.41;94.77
29063;BME280;71206;48.564;-123.458;2023-10-13T09:07:06;100552.59;;;13.35;96.55
29063;BME280;71206;48.564;-123.458;2023-10-13T09:09:31;100549.30;;;12.74;97.87
29063;BME280;71206;48.564;-123.458;2023-10-13T09:11:56;100540.19;;;13.27;99.34
29063;BME280;71206;48.564;-123.458;2023-10-13T09:14:21;100535.83;;;13.32;97.16
29063;BME280;71206;48.564;-123.458;2023-10-13T09:16:46;100530.10;;;13.70;94.91
29063;BME280;71206;48.564;-123.458;2023-10-13T09:19:11;100527.89;;;13.48;93.57
29063;BME280;71206;48.564;-123.458;2023-10-13T09:21:40;100526.78;;;13.23;96.19
29063;BME280;71206;48.564;-123.458;2023-10-13T09:24:03;100522.07;;;13.15;98.64
29063;BME280;71206;48.564;-123.458;2023-10-13T09:26:33;100519.28;;;13.36;94.34
29063;BME280;71206;48.564;-123.458;2023-10-13T09:28:52;100521.33;;;13.39;92.17
29063;BME280;71206;48.564;-123.458;2023-10-13T09:31:22;100518.82;;;13.46;93.02
29063;BME280;71206;48.564;-123.458;2023-10-13T09:33:47;100516.69;;;12.87;99.29
29063;BME280;71206;48.564;-123.458;2023-10-13T09:36:09;100512.09;;;12.72;100.00
29063;BME280;71206;48.564;-123.458;2023-10-13T09:38:34;100503.68;;;13.53;94.48
29063;BME280;71206;48.564;-123.458;2023-10-13T09:40:58;100502.69;;;13.66;91.48
29063;BME280;71206;48.564;-123.458;2023-10-13T09:43:23;100499.57;;;13.12;95.43
29063;BME280;71206;48.564;-123.458;2023-10-13T09:45:49;100499.70;;;13.14;97.20
29063;BME280;71206;48.564;-123.458;2023-10-13T09:48:13;100496.22;;;13.58;90.65
29063;BME280;71206;48.564;-123.458;2023-10-13T09:50:38;100499.21;;;13.36;94.75
29063;BME280;71206;48.564;-123.458;2023-10-13T09:53:05;100499.78;;;13.32;96.51
29063;BME280;71206;48.564;-123.458;2023-10-13T09:55:33;100496.31;;;13.40;93.44
29063;BME280;71206;48.564;-123.458;2023-10-13T09:58:03;100490.29;;;13.09;99.46
29063;BME280;71206;48.564;-123.458;2023-10-13T10:00:21;100486.06;;;13.17;92.28
29063;BME280;71206;48.564;-123.458;2023-10-13T10:02:45;100483.15;;;13.72;92.24
29063;BME280;71206;48.564;-123.458;2023-10-13T10:05:10;100479.72;;;13.37;93.58
29063;BME280;71206;48.564;-123.458;2023-10-13T10:07:35;100480.99;;;13.34;94.63
29063;BME280;71206;48.564;-123.458;2023-10-13T10:10:01;100477.66;;;13.85;87.95
29063;BME280;71206;48.564;-123.458;2023-10-13T10:12:34;100479.28;;;13.29;92.58
29063;BME280;71206;48.564;-123.458;2023-10-13T10:15:03;100468.97;;;13.65;89.71
29063;BME280;71206;48.564;-123.458;2023-10-13T10:17:17;100463.30;;;13.34;90.08
29063;BME280;71206;48.564;-123.458;2023-10-13T10:19:48;100459.81;;;13.53;87.41
29063;BME280;71206;48.564;-123.458;2023-10-13T10:22:07;100458.00;;;13.63;85.33
29063;BME280;71206;48.564;-123.458;2023-10-13T10:24:33;100458.72;;;13.84;85.70
29063;BME280;71206;48.564;-123.458;2023-10-13T10:26:58;100450.79;;;13.37;89.66
29063;BME280;71206;48.564;-123.458;2023-10-13T10:29:23;100452.03;;;13.25;90.25
29063;BME280;71206;48.564;-123.458;2023-10-13T10:31:48;100451.29;;;13.26;91.49
29063;BME280;71206;48.564;-123.458;2023-10-13T10:34:14;100453.48;;;12.62;98.20
29063;BME280;71206;48.564;-123.458;2023-10-13T10:36:40;100455.60;;;12.70;99.45
29063;BME280;71206;48.564;-123.458;2023-10-13T10:39:04;100449.88;;;13.14;95.36
29063;BME280;71206;48.564;-123.458;2023-10-13T10:41:30;100447.06;;;12.66;98.95
29063;BME280;71206;48.564;-123.458;2023-10-13T10:43:55;100442.01;;;13.23;92.72
29063;BME280;71206;48.564;-123.458;2023-10-13T10:46:26;100437.70;;;13.60;90.35
29063;BME280;71206;48.564;-123.458;2023-10-13T10:48:45;100446.62;;;12.80;97.33
29063;BME280;71206;48.564;-123.458;2023-10-13T10:51:11;100448.07;;;13.02;96.18
29063;BME280;71206;48.564;-123.458;2023-10-13T10:53:36;100448.31;;;12.87;95.42
29063;BME280;71206;48.564;-123.458;2023-10-13T10:56:06;100443.42;;;12.71;97.91
29063;BME280;71206;48.564;-123.458;2023-10-13T10:58:26;100441.01;;;12.56;98.88
29063;BME280;71206;48.564;-123.458;2023-10-13T11:00:51;100444.03;;;12.42;99.84
29063;BME280;71206;48.564;-123.458;2023-10-13T11:03:16;100445.10;;;12.62;100.00
29063;BME280;71206;48.564;-123.458;2023-10-13T11:05:47;100438.84;;;12.99;93.98
29063;BME280;71206;48.564;-123.458;2023-10-13T11:08:07;100442.59;;;12.12;100.00
29063;BME280;71206;48.564;-123.458;2023-10-13T11:10:32;100428.52;;;13.25;94.82
29063;BME280;71206;48.564;-123.458;2023-10-13T11:12:58;100424.49;;;12.70;94.12
29063;BME280;71206;48.564;-123.458;2023-10-13T11:15:22;100431.81;;;12.45;100.00
29063;BME280;71206;48.564;-123.458;2023-10-13T11:17:49;100425.20;;;12.38;100.00
29063;BME280;71206;48.564;-123.458;2023-10-13T11:20:16;100419.44;;;12.34;100.00
29063;BME280;71206;48.564;-123.458;2023-10-13T11:22:37;100418.21;;;12.05;100.00
29063;BME280;71206;48.564;-123.458;2023-10-13T11:25:04;100416.08;;;11.75;100.00
29063;BME280;71206;48.564;-123.458;2023-10-13T11:27:30;100414.22;;;12.38;100.00
29063;BME280;71206;48.564;-123.458;2023-10-13T11:29:54;100410.49;;;12.48;96.56
29063;BME280;71206;48.564;-123.458;2023-10-13T11:32:19;100412.66;;;12.60;100.00
29063;BME280;71206;48.564;-123.458;2023-10-13T11:34:43;100409.50;;;12.59;95.97
29063;BME280;71206;48.564;-123.458;2023-10-13T11:37:09;100414.39;;;12.05;97.78
29063;BME280;71206;48.564;-123.458;2023-10-13T11:39:34;100396.55;;;12.73;97.27
29063;BME280;71206;48.564;-123.458;2023-10-13T11:41:59;100395.89;;;12.49;94.77
29063;BME280;71206;48.564;-123.458;2023-10-13T11:44:24;100392.30;;;12.20;95.15
29063;BME280;71206;48.564;-123.458;2023-10-13T11:46:52;100383.80;;;12.77;90.06
29063;BME280;71206;48.564;-123.458;2023-10-13T11:49:15;100388.22;;;12.48;93.53
29063;BME280;71206;48.564;-123.458;2023-10-13T11:51:40;100394.48;;;12.45;98.04
29063;BME280;71206;48.564;-123.458;2023-10-13T11:54:06;100388.34;;;12.36;96.00
29063;BME280;71206;48.564;-123.458;2023-10-13T11:56:30;100379.48;;;13.04;87.83
29063;BME280;71206;48.564;-123.458;2023-10-13T11:58:58;100380.39;;;12.89;89.07
29063;BME280;71206;48.564;-123.458;2023-10-13T12:01:21;100387.80;;;11.88;100.00
29063;BME280;71206;48.564;-123.458;2023-10-13T12:03:48;100383.62;;;12.15;100.00
29063;BME280;71206;48.564;-123.458;2023-10-13T12:06:12;100389.62;;;12.45;97.91
29063;BME280;71206;48.564;-123.458;2023-10-13T12:08:36;100393.71;;;12.48;100.00
29063;BME280;71206;48.564;-123.458;2023-10-13T12:11:02;100386.37;;;13.00;91.88